Time;durP1;ratioP1;P1;durP2;ratioP2;P2;SDS_P1;SDS_P2;PMS_P1;PMS_P2;Temp;Humidity;BMP_temperature;BMP_pressure;BME280_temperature;BME280_humidity;BME280_pressure;Samples;Min_cycle;Max_cycle;Signal;HPM_P1;HPM_P2
2023/08/21 00:04:50;;;;;;;2.47;1.27;;;;;;;25.82;59.46;100779.47;10372005;28;97544;-80
2023/08/21 00:09:53;;;;;;;2.90;1.70;;;;;;;25.74;59.56;100780.19;10370115;28;97945;-80
2023/08/21 00:14:56;;;;;;;4.23;1.23;;;;;;;25.57;59.71;100778.19;10371174;28;96953;-80
2023/08/21 00:20:01;;;;;;;1.90;1.47;;;;;;;25.69;59.87;100777.06;10401582;28;97061;-80
2023/08/21 00:25:05;;;;;;;2.30;1.60;;;;;;;25.58;59.88;100771.81;10412398;28;96614;-80
2023/08/21 00:30:09;;;;;;;1.63;1.30;;;;;;;25.13;61.02;100761.75;10412987;28;97118;-80
2023/08/21 00:35:14;;;;;;;1.95;1.58;;;;;;;25.60;60.18;100755.50;10411947;28;96613;-80
2023/08/21 00:40:18;;;;;;;2.22;1.50;;;;;;;25.48;60.32;100751.25;10393555;28;97292;-80
2023/08/21 00:45:21;;;;;;;2.35;1.45;;;;;;;25.37;60.40;100752.25;10369869;28;96796;-80
2023/08/21 00:50:26;;;;;;;2.30;1.57;;;;;;;25.45;60.03;100759.63;10370456;28;96787;-80
2023/08/21 00:55:29;;;;;;;3.03;1.50;;;;;;;25.15;60.75;100749.84;10370780;28;97285;-80
2023/08/21 01:00:34;;;;;;;1.90;1.40;;;;;;;25.07;61.26;100755.06;10370015;28;97270;-79
2023/08/21 01:05:38;;;;;;;2.10;1.60;;;;;;;25.17;61.13;100757.78;10370047;28;97438;-79
2023/08/21 01:10:48;;;;;;;1.98;1.45;;;;;;;24.92;61.71;100755.59;10369427;28;96642;-79
2023/08/21 01:15:54;;;;;;;2.20;1.60;;;;;;;24.96;61.79;100744.41;10371118;28;97155;-79
2023/08/21 01:20:59;;;;;;;2.58;1.52;;;;;;;25.07;61.11;100744.28;10451260;27;97614;-80
2023/08/21 01:26:05;;;;;;;2.65;1.92;;;;;;;25.09;61.18;100738.75;10460208;27;97517;-79
2023/08/21 01:31:12;;;;;;;2.78;1.60;;;;;;;24.87;61.78;100736.31;10426250;27;96805;-79
2023/08/21 01:36:16;;;;;;;2.55;1.73;;;;;;;24.68;62.07;100727.22;10375827;28;96771;-79
2023/08/21 01:41:20;;;;;;;2.85;1.65;;;;;;;24.76;62.16;100737.28;10375800;28;97176;-80
2023/08/21 01:46:24;;;;;;;2.38;1.40;;;;;;;24.92;61.45;100734.06;10375919;28;97748;-80
2023/08/21 01:51:27;;;;;;;2.13;1.30;;;;;;;25.11;60.57;100734.97;10375655;28;96777;-80
2023/08/21 01:56:32;;;;;;;2.37;1.60;;;;;;;25.00;60.74;100743.16;10416625;27;97178;-80
2023/08/21 02:01:35;;;;;;;2.03;1.50;;;;;;;24.76;61.37;100746.22;10441370;27;96663;-80
2023/08/21 02:06:39;;;;;;;1.98;1.30;;;;;;;24.65;61.78;100749.03;10388509;28;98058;-80
2023/08/21 02:11:43;;;;;;;3.87;1.70;;;;;;;24.69;61.74;100746.91;10375171;28;97933;-79
2023/08/21 02:16:47;;;;;;;2.00;1.55;;;;;;;24.51;62.26;100748.56;10457718;27;96743;-79
2023/08/21 02:21:50;;;;;;;;;;;;;;;24.53;62.81;100746.59;10430035;27;96757;-79
2023/08/21 02:26:55;;;;;;;1.85;1.60;;;;;;;24.27;62.85;100740.78;10375192;28;97825;-79
2023/08/21 02:31:58;;;;;;;2.17;1.60;;;;;;;24.22;63.10;100747.59;10373346;28;97415;-79
2023/08/21 02:37:02;;;;;;;2.93;1.87;;;;;;;24.00;63.83;100740.53;10374746;28;96778;-79
2023/08/21 02:42:07;;;;;;;2.22;1.48;;;;;;;23.75;64.39;100732.06;10374379;28;96659;-79
2023/08/21 02:47:11;;;;;;;2.45;1.48;;;;;;;23.58;65.08;100731.66;10373573;28;96718;-79
2023/08/21 02:52:14;;;;;;;3.07;1.60;;;;;;;23.53;65.33;100735.69;10407073;27;97790;-79
2023/08/21 02:57:19;;;;;;;3.63;1.55;;;;;;;24.00;63.74;100734.31;10390229;28;96830;-81
2023/08/21 03:02:23;;;;;;;1.70;1.35;;;;;;;24.14;63.14;100729.44;10373339;28;96746;-80
2023/08/21 03:07:27;;;;;;;2.65;1.55;;;;;;;24.15;63.00;100732.97;10373146;28;96755;-81
2023/08/21 03:12:31;;;;;;;2.20;1.60;;;;;;;24.33;62.54;100736.75;10372710;28;96739;-80
2023/08/21 03:17:34;;;;;;;2.45;1.83;;;;;;;24.12;62.96;100734.09;10372207;28;97422;-79
2023/08/21 03:22:38;;;;;;;2.33;1.60;;;;;;;24.06;63.48;100742.72;10372726;28;96699;-79
2023/08/21 03:27:44;;;;;;;2.05;1.35;;;;;;;23.98;63.37;100747.06;10372616;28;96797;-79
2023/08/21 03:32:47;;;;;;;2.10;1.58;;;;;;;23.83;63.38;100735.78;10372981;28;96783;-79
2023/08/21 03:37:51;;;;;;;1.77;1.30;;;;;;;23.98;63.32;100737.13;10389030;28;96792;-79
2023/08/21 03:42:55;;;;;;;2.57;1.70;;;;;;;24.05;62.93;100735.59;10413622;27;97928;-80
2023/08/21 03:47:58;;;;;;;3.28;1.77;;;;;;;24.06;63.01;100740.03;10391242;28;97460;-80
2023/08/21 03:53:02;;;;;;;2.27;1.50;;;;;;;23.85;63.54;100727.59;10411769;28;96799;-79
2023/08/21 03:58:07;;;;;;;1.80;1.40;;;;;;;23.79;63.36;100726.28;10412934;28;96776;-79
2023/08/21 04:03:11;;;;;;;3.22;1.60;;;;;;;23.79;63.33;100725.44;10403620;28;96812;-80
2023/08/21 04:08:15;;;;;;;1.83;1.43;;;;;;;23.95;62.71;100723.97;10371846;28;96655;-80
2023/08/21 04:13:19;;;;;;;2.57;1.70;;;;;;;23.88;62.92;100728.16;10371092;28;97198;-80
2023/08/21 04:18:24;;;;;;;2.03;1.50;;;;;;;23.85;63.09;100724.91;10370196;28;97834;-80
2023/08/21 04:23:46;;;;;;;2.50;1.75;;;;;;;23.71;63.37;100723.41;10371998;28;96733;-80
2023/08/21 04:28:50;;;;;;;2.53;1.48;;;;;;;23.53;63.81;100728.50;10370863;28;97785;-80
2023/08/21 04:33:54;;;;;;;2.05;1.45;;;;;;;23.63;63.38;100729.44;10370560;28;97817;-80
2023/08/21 04:38:57;;;;;;;2.67;1.60;;;;;;;23.49;63.73;100718.97;10372029;28;96888;-80
2023/08/21 04:44:02;;;;;;;3.27;1.60;;;;;;;23.51;63.44;100718.88;10371319;28;96704;-80
2023/08/21 04:49:06;;;;;;;1.83;1.30;;;;;;;23.37;63.63;100716.50;10377215;28;96738;-80
2023/08/21 04:54:09;;;;;;;3.10;1.90;;;;;;;23.18;63.87;100719.06;10403398;28;97613;-80
2023/08/21 04:59:14;;;;;;;1.80;1.45;;;;;;;23.21;63.61;100725.03;10377104;28;96811;-80
2023/08/21 05:04:17;;;;;;;1.73;1.48;;;;;;;23.21;63.42;100721.47;10377225;28;96732;-80
2023/08/21 05:09:20;;;;;;;2.60;1.50;;;;;;;23.15;63.53;100730.03;10377083;28;96654;-79
2023/08/21 05:14:25;;;;;;;2.15;1.55;;;;;;;22.81;64.56;100732.00;10377191;28;98176;-79
2023/08/21 05:19:28;;;;;;;2.33;1.55;;;;;;;22.99;63.53;100727.78;10376264;28;97259;-80
2023/08/21 05:24:32;;;;;;;3.10;1.60;;;;;;;23.00;63.42;100728.63;10376356;28;97057;-80
2023/08/21 05:29:36;;;;;;;2.43;1.67;;;;;;;22.98;63.70;100739.50;10377901;28;96911;-80
2023/08/21 05:34:40;;;;;;;2.50;1.83;;;;;;;22.84;64.13;100738.94;10376344;28;96840;-81
2023/08/21 05:39:43;;;;;;;2.77;1.60;;;;;;;22.75;64.45;100740.50;10411083;28;97701;-80
2023/08/21 05:44:48;;;;;;;2.93;1.87;;;;;;;22.74;64.34;100746.88;10412180;28;96763;-79
2023/08/21 05:49:52;;;;;;;2.17;1.63;;;;;;;22.47;65.18;100744.59;10389345;28;97061;-79
2023/08/21 05:54:56;;;;;;;2.30;1.50;;;;;;;22.79;64.13;100751.88;10417152;28;96735;-80
2023/08/21 06:00:01;;;;;;;2.17;1.57;;;;;;;22.64;64.23;100752.13;10416651;28;96715;-79
2023/08/21 06:05:05;;;;;;;1.90;1.50;;;;;;;22.43;65.06;100761.06;10384666;28;97300;-79
2023/08/21 06:10:11;;;;;;;2.25;1.67;;;;;;;22.83;64.08;100758.72;10374897;28;97714;-80
2023/08/21 06:15:16;;;;;;;2.20;1.77;;;;;;;22.85;64.01;100759.44;10375045;28;97748;-80
2023/08/21 06:20:20;;;;;;;2.17;1.70;;;;;;;22.68;65.02;100752.72;10375644;28;96828;-80
2023/08/21 06:25:23;;;;;;;;;;;;;;;22.45;66.90;100757.28;10375268;28;97739;-80
2023/08/21 06:30:28;;;;;;;2.58;1.65;;;;;;;22.56;65.80;100749.22;10374760;28;96772;-80
2023/08/21 06:35:31;;;;;;;3.10;1.60;;;;;;;22.63;65.90;100743.38;10373865;28;96622;-80
2023/08/21 06:40:34;;;;;;;2.28;1.83;;;;;;;22.89;65.30;100753.69;10409520;28;97522;-80
2023/08/21 06:45:39;;;;;;;2.30;1.40;;;;;;;23.17;64.66;100761.16;10415394;28;96638;-81
2023/08/21 06:50:42;;;;;;;3.55;1.45;;;;;;;23.39;63.97;100755.69;10414982;28;96729;-80
2023/08/21 06:55:46;;;;;;;2.05;1.48;;;;;;;23.61;63.40;100766.34;10385486;28;97172;-80
2023/08/21 07:00:51;;;;;;;2.00;1.50;;;;;;;23.90;62.31;100761.16;10373325;28;96774;-80
2023/08/21 07:05:56;;;;;;;1.35;1.20;;;;;;;24.13;60.69;100768.09;10372940;28;97737;-80
2023/08/21 07:11:03;;;;;;;1.58;1.30;;;;;;;24.47;59.89;100772.22;10374510;28;97210;-79
2023/08/21 07:16:08;;;;;;;1.73;1.35;;;;;;;24.75;58.83;100775.97;10372162;28;97334;-80
2023/08/21 07:21:12;;;;;;;1.73;1.25;;;;;;;25.32;57.74;100777.91;10372157;28;97398;-80
2023/08/21 07:26:34;;;;;;;1.52;1.27;;;;;;;26.05;56.54;100774.59;10372114;28;97440;-81
2023/08/21 07:31:39;;;;;;;2.23;1.40;;;;;;;26.79;54.71;100771.72;10372190;28;96843;-80
2023/08/21 07:36:42;;;;;;;1.40;1.15;;;;;;;27.63;53.08;100781.19;10384818;28;96838;-81
2023/08/21 07:41:45;;;;;;;;;;;;;;;27.95;50.45;100781.47;10414063;28;96726;-81
2023/08/21 07:46:50;;;;;;;3.25;1.50;;;;;;;27.91;51.45;100780.09;10395898;22;97597;-81
2023/08/21 07:51:54;;;;;;;1.60;1.20;;;;;;;28.32;51.03;100781.22;10454448;27;96797;-81
2023/08/21 07:56:57;;;;;;;1.90;1.50;;;;;;;28.86;49.58;100783.47;10455094;27;96655;-81
2023/08/21 08:02:04;;;;;;;;;;;;;;;29.94;45.99;100792.28;10425547;27;96947;-82
2023/08/21 08:07:08;;;;;;;1.67;1.30;;;;;;;30.17;46.99;100784.31;10371717;28;96697;-81
2023/08/21 08:12:12;;;;;;;2.05;1.50;;;;;;;30.63;46.47;100793.50;10371517;28;96695;-81
2023/08/21 08:17:16;;;;;;;;;;;;;;;30.68;45.12;100782.97;10370848;28;97022;-81
2023/08/21 08:22:24;;;;;;;2.00;1.27;;;;;;;30.75;45.09;100781.25;10371539;28;96773;-81
2023/08/21 08:27:27;;;;;;;1.50;1.23;;;;;;;30.80;45.79;100779.66;10370945;28;96751;-81
2023/08/21 08:32:36;;;;;;;2.28;1.58;;;;;;;30.96;44.69;100776.00;10376015;28;96626;-81
2023/08/21 08:37:42;;;;;;;1.65;1.25;;;;;;;31.56;43.79;100785.16;10399122;28;96635;-81
2023/08/21 08:42:48;;;;;;;1.48;1.30;;;;;;;31.29;44.41;100783.84;10419580;28;97334;-80
2023/08/21 08:47:54;;;;;;;2.10;1.40;;;;;;;31.48;44.29;100785.22;10419050;28;96888;-80
2023/08/21 08:52:59;;;;;;;1.75;1.63;;;;;;;31.23;44.03;100784.50;10405317;28;96755;-80
2023/08/21 08:58:16;;;;;;;3.25;1.65;;;;;;;31.59;42.96;100782.06;10377390;28;96965;-80
2023/08/21 09:03:21;;;;;;;2.22;1.70;;;;;;;31.71;43.32;100775.16;10376552;28;96712;-81
2023/08/21 09:08:25;;;;;;;2.15;1.40;;;;;;;32.28;41.76;100767.28;10376787;28;97124;-81
2023/08/21 09:13:28;;;;;;;2.13;1.52;;;;;;;31.72;42.94;100763.22;10376966;28;96722;-81
2023/08/21 09:18:35;;;;;;;1.55;1.33;;;;;;;31.32;42.56;100758.16;10376378;28;96652;-81
2023/08/21 09:23:41;;;;;;;2.10;1.65;;;;;;;31.52;42.62;100758.50;10376580;28;96848;-80
2023/08/21 09:28:45;;;;;;;2.17;1.63;;;;;;;31.91;41.84;100760.03;10376807;28;96809;-81
2023/08/21 09:33:56;;;;;;;1.77;1.50;;;;;;;32.18;41.74;100753.97;10376267;28;96861;-81
2023/08/21 09:38:59;;;;;;;2.10;1.70;;;;;;;32.36;41.46;100757.16;10415580;28;96766;-81
2023/08/21 09:44:04;;;;;;;2.20;1.83;;;;;;;32.22;41.09;100754.44;10403109;27;96894;-81
2023/08/21 09:49:09;;;;;;;1.83;1.60;;;;;;;32.45;40.62;100747.00;10375032;28;96803;-81
2023/08/21 09:54:12;;;;;;;2.42;1.63;;;;;;;32.67;40.21;100753.41;10375707;28;96737;-81
2023/08/21 09:59:17;;;;;;;3.67;1.50;;;;;;;33.24;39.74;100744.19;10375004;28;97807;-81
2023/08/21 10:04:23;;;;;;;2.45;1.70;;;;;;;33.69;38.59;100743.00;10375179;28;96953;-81
2023/08/21 10:09:28;;;;;;;1.70;1.30;;;;;;;35.03;36.13;100733.28;10375138;28;96796;-81
2023/08/21 10:14:31;;;;;;;2.03;1.40;;;;;;;34.88;36.21;100735.31;10375432;28;97043;-81
2023/08/21 10:19:36;;;;;;;1.63;1.50;;;;;;;35.28;35.24;100733.53;10374881;28;97478;-81
2023/08/21 10:24:39;;;;;;;2.22;1.63;;;;;;;35.57;35.61;100731.28;10374232;28;96854;-81
2023/08/21 10:29:57;;;;;;;2.08;1.50;;;;;;;34.92;37.03;100722.91;10374692;28;96687;-81
2023/08/21 10:35:02;;;;;;;2.22;1.50;;;;;;;36.04;34.82;100712.91;10383011;28;97954;-81
2023/08/21 10:40:08;;;;;;;1.80;1.30;;;;;;;36.34;34.70;100714.94;10415589;28;96707;-81
2023/08/21 10:45:12;;;;;;;1.75;1.50;;;;;;;36.77;33.84;100698.75;10415574;28;96621;-82
2023/08/21 10:50:17;;;;;;;2.42;1.38;;;;;;;35.90;34.21;100686.56;10413851;28;97881;-81
2023/08/21 10:55:21;;;;;;;1.52;1.30;;;;;;;36.12;33.86;100688.03;10372561;28;96667;-81
2023/08/21 11:00:24;;;;;;;1.90;1.48;;;;;;;35.95;34.78;100681.31;10373839;28;96591;-81
2023/08/21 11:05:29;;;;;;;2.17;1.65;;;;;;;36.54;33.81;100669.13;10373398;28;96830;-81
2023/08/21 11:10:33;;;;;;;1.60;1.50;;;;;;;36.45;33.86;100662.19;10372791;28;96685;-81
2023/08/21 11:15:36;;;;;;;1.55;1.27;;;;;;;36.60;33.97;100659.19;10373190;28;96793;-81
2023/08/21 11:20:41;;;;;;;2.03;1.42;;;;;;;36.73;33.54;100648.13;10372618;28;96712;-81
2023/08/21 11:25:46;;;;;;;1.77;1.25;;;;;;;36.11;34.12;100639.75;10373371;28;97046;-81
2023/08/21 11:30:49;;;;;;;1.50;1.27;;;;;;;36.52;32.97;100629.25;10372665;28;96668;-81
2023/08/21 11:35:57;;;;;;;1.95;1.38;;;;;;;36.46;33.08;100630.16;10394479;28;97505;-81
2023/08/21 11:41:02;;;;;;;1.40;1.30;;;;;;;36.31;33.19;100621.34;10413064;28;97590;-81
2023/08/21 11:46:06;;;;;;;1.75;1.15;;;;;;;36.51;32.39;100613.88;10413037;27;96687;-81
2023/08/21 11:51:11;;;;;;;2.28;1.60;;;;;;;36.76;32.70;100612.00;10413406;28;96727;-81
2023/08/21 11:56:16;;;;;;;1.83;1.50;;;;;;;36.71;31.99;100604.47;10413334;28;96599;-82
2023/08/21 12:01:20;;;;;;;1.33;1.20;;;;;;;36.41;32.97;100600.63;10412370;28;96737;-81
2023/08/21 12:06:26;;;;;;;1.65;1.15;;;;;;;36.57;32.13;100593.78;10412961;27;96866;-81
2023/08/21 12:11:30;;;;;;;1.20;1.05;;;;;;;36.59;32.03;100586.19;10413505;28;96655;-81
2023/08/21 12:16:33;;;;;;;1.33;1.17;;;;;;;36.66;31.05;100582.34;10412595;28;96945;-81
2023/08/21 12:21:39;;;;;;;1.27;1.10;;;;;;;36.73;31.54;100574.91;10412610;28;96776;-81
2023/08/21 12:26:42;;;;;;;1.05;0.90;;;;;;;36.80;31.18;100566.63;10412586;28;96650;-82
2023/08/21 12:31:53;;;;;;;1.42;1.15;;;;;;;36.52;32.18;100557.94;10411652;28;96592;-82
2023/08/21 12:36:57;;;;;;;1.45;1.20;;;;;;;36.47;31.76;100541.31;10404252;27;97497;-82
2023/08/21 12:42:01;;;;;;;1.70;1.20;;;;;;;36.53;32.08;100538.53;10411601;28;96724;-82
2023/08/21 12:47:04;;;;;;;1.90;1.02;;;;;;;36.62;31.77;100523.50;10411525;28;96859;-81
2023/08/21 12:52:09;;;;;;;1.27;1.00;;;;;;;36.72;30.67;100526.56;10387806;28;97078;-82
2023/08/21 12:57:13;;;;;;;1.00;0.88;;;;;;;36.87;30.74;100517.16;10370276;28;97241;-82
2023/08/21 13:02:17;;;;;;;1.45;1.10;;;;;;;36.89;30.27;100521.41;10370108;28;96797;-82
2023/08/21 13:07:22;;;;;;;1.13;1.00;;;;;;;36.91;30.17;100510.22;10371333;28;97341;-81
2023/08/21 13:12:26;;;;;;;1.15;1.05;;;;;;;36.88;29.89;100508.75;10370050;28;96877;-82
2023/08/21 13:17:29;;;;;;;1.48;0.98;;;;;;;36.84;29.39;100499.28;10372692;28;96693;-82
2023/08/21 13:22:48;;;;;;;1.35;0.98;;;;;;;37.05;29.10;100504.38;10375543;28;96646;-82
2023/08/21 13:27:53;;;;;;;0.93;0.88;;;;;;;37.17;29.12;100499.84;10376944;28;97128;-82
2023/08/21 13:32:56;;;;;;;0.88;0.85;;;;;;;37.40;28.97;100486.28;10389298;27;96845;-82
2023/08/21 13:38:02;;;;;;;1.45;1.15;;;;;;;37.44;28.77;100479.28;10459775;27;96993;-82
2023/08/21 13:43:07;;;;;;;2.10;1.13;;;;;;;37.51;28.88;100484.69;10410616;27;96672;-82
2023/08/21 13:48:10;;;;;;;1.83;1.15;;;;;;;37.51;29.34;100482.78;10375325;28;96792;-82
2023/08/21 13:53:16;;;;;;;1.35;1.05;;;;;;;37.70;28.27;100473.47;10375637;28;96818;-82
2023/08/21 13:58:21;;;;;;;1.55;0.90;;;;;;;37.74;27.81;100471.09;10376843;28;97553;-82
2023/08/21 14:03:24;;;;;;;1.15;1.00;;;;;;;37.79;27.63;100463.84;10375762;28;97032;-82
2023/08/21 14:08:30;;;;;;;1.85;1.05;;;;;;;37.74;27.41;100458.19;10375042;28;96830;-82
2023/08/21 14:13:34;;;;;;;0.90;0.70;;;;;;;37.92;27.02;100454.59;10374221;28;96719;-81
2023/08/21 14:18:38;;;;;;;1.90;0.93;;;;;;;37.93;27.06;100452.69;10375105;28;97023;-82
2023/08/21 14:23:42;;;;;;;1.60;1.17;;;;;;;38.01;27.51;100444.09;10374892;28;96675;-82
2023/08/21 14:28:50;;;;;;;1.65;0.98;;;;;;;38.11;26.98;100433.41;10373653;28;97056;-82
2023/08/21 14:34:11;;;;;;;1.10;0.90;;;;;;;38.15;26.48;100426.34;10409309;27;97998;-82
2023/08/21 14:39:16;;;;;;;1.33;0.95;;;;;;;38.21;26.66;100418.00;10457745;27;96674;-82
2023/08/21 14:44:19;;;;;;;1.90;1.10;;;;;;;38.25;26.44;100410.94;10457428;27;97004;-82
2023/08/21 14:49:23;;;;;;;1.67;1.10;;;;;;;38.36;26.34;100417.56;10437497;27;96896;-82
2023/08/21 14:54:45;;;;;;;1.15;1.00;;;;;;;38.44;26.85;100403.50;10370086;28;97062;-82
2023/08/21 15:00:09;;;;;;;1.23;1.13;;;;;;;38.48;27.31;100394.53;10366995;28;97120;-82
2023/08/21 15:05:16;;;;;;;1.67;1.00;;;;;;;38.48;26.51;100383.50;10372810;28;97059;-83
2023/08/21 15:10:20;;;;;;;2.22;1.15;;;;;;;38.60;27.02;100380.75;10373185;28;96742;-82
2023/08/21 15:15:24;;;;;;;2.17;1.20;;;;;;;38.60;26.93;100378.00;10372963;28;96811;-82
2023/08/21 15:20:27;;;;;;;1.90;1.15;;;;;;;38.49;26.15;100370.59;10372641;28;97105;-82
2023/08/21 15:25:32;;;;;;;1.70;1.23;;;;;;;38.24;25.82;100367.19;10373520;28;97144;-82
2023/08/21 15:30:35;;;;;;;1.20;1.10;;;;;;;38.63;26.04;100366.53;10372319;28;97266;-82
2023/08/21 15:35:39;;;;;;;1.05;0.93;;;;;;;38.62;26.23;100346.44;10409837;28;97041;-82
2023/08/21 15:40:43;;;;;;;1.02;0.93;;;;;;;38.43;25.80;100347.63;10401266;28;96716;-82
2023/08/21 15:45:47;;;;;;;2.05;1.30;;;;;;;38.53;26.38;100344.28;10372099;28;96830;-82
2023/08/21 15:50:50;;;;;;;1.38;1.10;;;;;;;38.46;26.99;100343.56;10371872;28;97555;-82
2023/08/21 15:55:55;;;;;;;1.73;1.27;;;;;;;38.47;26.21;100342.50;10370421;28;97340;-82
2023/08/21 16:01:00;;;;;;;1.65;1.38;;;;;;;38.26;27.17;100335.69;10372261;28;97114;-82
2023/08/21 16:06:04;;;;;;;1.25;0.85;;;;;;;38.08;27.25;100334.88;10371453;28;96772;-82
2023/08/21 16:11:09;;;;;;;1.23;1.10;;;;;;;37.91;26.97;100326.50;10371551;28;96962;-82
2023/08/21 16:16:12;;;;;;;1.40;1.08;;;;;;;37.85;27.25;100321.13;10371374;28;97226;-82
2023/08/21 16:21:16;;;;;;;1.65;1.00;;;;;;;37.70;27.54;100322.38;10371665;28;97711;-82
2023/08/21 16:26:20;;;;;;;1.33;1.23;;;;;;;37.47;28.01;100321.44;10371014;28;96706;-81
2023/08/21 16:31:25;;;;;;;1.50;1.20;;;;;;;37.35;28.60;100315.91;10380908;28;96675;-82
2023/08/21 16:36:29;;;;;;;1.73;1.30;;;;;;;37.21;28.86;100316.28;10412198;28;96842;-81
2023/08/21 16:41:34;;;;;;;1.67;1.33;;;;;;;37.03;29.52;100319.91;10412562;28;97064;-83
2023/08/21 16:46:37;;;;;;;2.05;1.35;;;;;;;36.94;29.76;100321.25;10410285;28;96912;-82
2023/08/21 16:51:40;;;;;;;2.60;1.60;;;;;;;36.74;30.60;100320.63;10369845;28;96878;-82
2023/08/21 16:56:45;;;;;;;2.63;1.85;;;;;;;36.62;31.65;100320.53;10377496;28;96867;-82
2023/08/21 17:01:49;;;;;;;2.50;1.60;;;;;;;36.53;32.20;100313.66;10377438;28;96677;-81
2023/08/21 17:06:52;;;;;;;3.50;1.88;;;;;;;36.44;32.62;100322.41;10377727;28;96892;-81
2023/08/21 17:11:57;;;;;;;2.50;1.73;;;;;;;36.23;32.71;100320.06;10377079;28;97652;-82
2023/08/21 17:17:18;;;;;;;2.20;1.70;;;;;;;36.22;32.62;100318.38;10376542;28;96859;-82
2023/08/21 17:22:21;;;;;;;2.72;1.67;;;;;;;36.06;32.81;100330.75;10378436;28;96886;-82
2023/08/21 17:27:26;;;;;;;2.17;1.52;;;;;;;35.88;32.53;100332.53;10376434;28;97151;-82
2023/08/21 17:32:30;;;;;;;2.92;1.48;;;;;;;35.85;32.66;100335.72;10415511;27;96652;-81
2023/08/21 17:37:34;;;;;;;2.05;1.40;;;;;;;35.80;32.52;100343.75;10458753;27;96576;-81
2023/08/21 17:42:39;;;;;;;2.30;1.60;;;;;;;35.74;32.29;100344.66;10384946;27;96769;-82
2023/08/21 17:47:43;;;;;;;1.70;1.52;;;;;;;35.60;32.56;100346.63;10375309;28;96845;-81
2023/08/21 17:52:46;;;;;;;2.95;1.80;;;;;;;35.53;32.90;100354.88;10375967;28;96690;-81
2023/08/21 17:57:57;;;;;;;2.40;1.60;;;;;;;35.41;33.04;100359.34;10375967;28;96769;-82
2023/08/21 18:03:00;;;;;;;2.75;1.65;;;;;;;35.20;33.37;100373.31;10375302;28;97376;-82
2023/08/21 18:08:04;;;;;;;2.38;1.80;;;;;;;35.01;33.51;100368.75;10375286;28;97064;-81
2023/08/21 18:13:09;;;;;;;2.65;1.50;;;;;;;34.81;33.77;100370.69;10376471;28;97142;-82
2023/08/21 18:18:12;;;;;;;2.75;1.40;;;;;;;34.69;33.52;100375.13;10374711;28;97030;-82
2023/08/21 18:23:17;;;;;;;2.17;1.48;;;;;;;34.52;33.85;100376.63;10374953;28;97173;-81
2023/08/21 18:28:23;;;;;;;2.65;1.40;;;;;;;34.37;33.80;100385.00;10372964;28;96856;-82
2023/08/21 18:33:27;;;;;;;2.13;1.40;;;;;;;34.21;33.81;100390.06;10402705;27;97037;-81
2023/08/21 18:38:31;;;;;;;2.08;1.35;;;;;;;34.01;33.66;100389.19;10415217;28;97734;-81
2023/08/21 18:43:35;;;;;;;2.20;1.40;;;;;;;33.86;33.67;100396.72;10415671;28;96842;-81
2023/08/21 18:48:38;;;;;;;2.20;1.30;;;;;;;33.68;33.52;100405.47;10394718;28;96800;-82
2023/08/21 18:53:43;;;;;;;2.10;1.55;;;;;;;33.58;33.93;100415.94;10374244;28;96700;-81
2023/08/21 18:58:49;;;;;;;2.80;1.40;;;;;;;33.37;34.06;100424.22;10373425;28;96643;-81
2023/08/21 19:03:52;;;;;;;2.63;1.58;;;;;;;33.22;34.73;100429.00;10374984;28;96725;-81
2023/08/21 19:08:55;;;;;;;2.15;1.58;;;;;;;33.05;35.45;100425.72;10374011;28;97654;-81
2023/08/21 19:14:00;;;;;;;1.60;1.25;;;;;;;32.86;35.78;100439.22;10372265;28;96896;-81
2023/08/21 19:19:03;;;;;;;2.85;1.70;;;;;;;32.67;36.57;100445.38;10371914;28;97001;-81
2023/08/21 19:24:07;;;;;;;2.15;1.40;;;;;;;32.49;37.27;100456.75;10373300;28;96660;-81
2023/08/21 19:29:12;;;;;;;2.67;1.60;;;;;;;32.35;37.81;100461.25;10372737;28;97599;-81
2023/08/21 19:34:21;;;;;;;3.03;1.60;;;;;;;32.22;38.27;100471.16;10413991;28;97540;-80
2023/08/21 19:39:24;;;;;;;1.85;1.60;;;;;;;32.03;38.55;100475.34;10395312;28;97270;-81
2023/08/21 19:44:30;;;;;;;2.80;1.80;;;;;;;31.81;39.62;100486.38;10371963;28;97200;-80
2023/08/21 19:49:33;;;;;;;3.13;1.88;;;;;;;31.72;40.04;100482.91;10371736;28;97190;-80
2023/08/21 19:54:40;;;;;;;3.17;1.90;;;;;;;31.57;40.23;100484.81;10373221;28;97169;-80
2023/08/21 19:59:44;;;;;;;2.00;1.60;;;;;;;31.47;39.72;100478.81;10371720;28;96998;-80
2023/08/21 20:04:48;;;;;;;2.40;1.40;;;;;;;31.39;40.12;100497.13;10371936;28;97198;-80
2023/08/21 20:09:52;;;;;;;4.13;1.90;;;;;;;31.21;40.28;100494.75;10370209;28;96812;-80
2023/08/21 20:14:57;;;;;;;2.25;1.50;;;;;;;31.12;41.26;100493.13;10372209;28;96782;-80
2023/08/21 20:20:07;;;;;;;1.92;1.45;;;;;;;31.02;40.89;100504.28;10409411;22;97691;-80
2023/08/21 20:25:12;;;;;;;5.22;1.63;;;;;;;30.87;41.22;100510.72;10414438;27;97615;-80
2023/08/21 20:30:17;;;;;;;3.20;1.75;;;;;;;30.77;41.06;100515.56;10404437;28;97486;-80
2023/08/21 20:35:21;;;;;;;2.20;1.52;;;;;;;30.61;41.81;100505.66;10419857;28;96743;-80
2023/08/21 20:40:24;;;;;;;2.45;1.50;;;;;;;30.31;42.33;100509.31;10419753;28;96724;-80
2023/08/21 20:45:29;;;;;;;;;;;;;;;30.15;42.85;100507.53;10419765;28;97975;-80
2023/08/21 20:50:33;;;;;;;2.75;1.45;;;;;;;30.16;42.62;100502.97;10419098;28;96783;-80
2023/08/21 20:55:36;;;;;;;3.45;1.70;;;;;;;30.28;42.15;100510.50;10419239;28;96719;-81
2023/08/21 21:00:42;;;;;;;3.22;1.67;;;;;;;30.04;42.72;100513.34;10418705;28;98037;-80
2023/08/21 21:05:46;;;;;;;2.15;1.38;;;;;;;29.80;43.50;100516.19;10418040;28;96712;-80
2023/08/21 21:10:49;;;;;;;2.95;1.80;;;;;;;29.71;43.78;100511.00;10418740;28;96688;-80
2023/08/21 21:15:54;;;;;;;2.10;1.48;;;;;;;29.83;43.29;100509.56;10418223;28;96621;-80
2023/08/21 21:20:57;;;;;;;2.25;1.55;;;;;;;29.42;44.22;100503.44;10403130;28;97609;-80
2023/08/21 21:26:01;;;;;;;1.90;1.40;;;;;;;29.35;44.62;100498.91;10376844;28;96811;-80
2023/08/21 21:31:23;;;;;;;3.08;1.88;;;;;;;29.39;44.61;100498.38;10370046;28;96600;-80
2023/08/21 21:36:26;;;;;;;2.35;1.60;;;;;;;29.22;44.85;100498.59;10376829;28;96868;-80
2023/08/21 21:41:29;;;;;;;2.28;1.52;;;;;;;29.13;45.14;100498.63;10398944;28;96931;-80
2023/08/21 21:46:34;;;;;;;2.40;1.70;;;;;;;29.42;44.62;100494.44;10416973;28;97151;-80
2023/08/21 21:51:37;;;;;;;2.30;1.60;;;;;;;29.32;44.53;100494.66;10416481;28;96773;-80
2023/08/21 21:56:40;;;;;;;2.58;1.88;;;;;;;28.91;45.67;100484.97;10388092;28;97221;-80
2023/08/21 22:01:45;;;;;;;3.08;1.90;;;;;;;29.03;45.65;100484.44;10375484;28;97212;-80
2023/08/21 22:06:48;;;;;;;2.17;1.70;;;;;;;28.83;45.90;100476.78;10375382;28;97050;-80
2023/08/21 22:11:52;;;;;;;2.20;1.73;;;;;;;29.01;45.82;100469.34;10375535;28;96892;-80
2023/08/21 22:16:56;;;;;;;2.47;1.98;;;;;;;28.77;46.36;100467.50;10380731;28;96938;-80
2023/08/21 22:21:59;;;;;;;2.88;1.60;;;;;;;28.83;46.30;100450.56;10416796;28;97410;-80
2023/08/21 22:27:03;;;;;;;3.60;1.75;;;;;;;28.52;47.04;100454.16;10417121;28;96646;-80
2023/08/21 22:32:07;;;;;;;;;;;;;;;28.12;47.91;100446.00;10415978;28;97120;-80
2023/08/21 22:37:11;;;;;;;2.50;1.63;;;;;;;28.10;47.82;100444.31;10416147;28;97364;-80
2023/08/21 22:42:14;;;;;;;2.25;1.90;;;;;;;28.23;47.65;100437.53;10414873;28;97032;-80
2023/08/21 22:47:19;;;;;;;2.42;1.65;;;;;;;28.09;47.93;100429.09;10414257;27;96879;-80
2023/08/21 22:52:23;;;;;;;2.83;1.80;;;;;;;28.27;47.56;100437.06;10414410;28;96615;-80
2023/08/21 22:57:26;;;;;;;3.35;1.98;;;;;;;27.94;48.41;100436.16;10415321;28;96859;-80
2023/08/21 23:02:30;;;;;;;3.13;1.73;;;;;;;27.92;48.52;100443.63;10414347;28;96679;-80
2023/08/21 23:07:35;;;;;;;4.13;1.90;;;;;;;27.97;48.34;100441.25;10415027;28;96608;-80
2023/08/21 23:12:38;;;;;;;2.55;1.50;;;;;;;28.12;47.78;100433.31;10414997;28;96838;-80
2023/08/21 23:18:01;;;;;;;2.67;1.83;;;;;;;28.26;47.97;100431.78;10427608;27;96883;-80
2023/08/21 23:23:05;;;;;;;2.15;1.80;;;;;;;28.31;47.99;100430.28;10374548;27;97788;-80
2023/08/21 23:28:08;;;;;;;3.20;2.03;;;;;;;28.34;48.28;100431.84;10372764;28;97463;-80